sensor_id;sensor_type;location;lat;lon;timestamp;temperature;humidity
3023;DHT22;1521;53.584;9.938;2024-03-22T00:01:44;8.50;1.00
3023;DHT22;1521;53.584;9.938;2024-03-22T00:04:10;8.50;1.00
3023;DHT22;1521;53.584;9.938;2024-03-22T00:06:36;8.40;1.00
3023;DHT22;1521;53.584;9.938;2024-03-22T00:09:01;8.50;1.00
3023;DHT22;1521;53.584;9.938;2024-03-22T00:11:27;8.50;1.00
3023;DHT22;1521;53.584;9.938;2024-03-22T00:13:52;8.50;1.00
3023;DHT22;1521;53.584;9.938;2024-03-22T00:16:18;8.50;1.00
3023;DHT22;1521;53.584;9.938;2024-03-22T00:18:43;8.50;1.00
3023;DHT22;1521;53.584;9.938;2024-03-22T00:21:09;8.50;1.00
3023;DHT22;1521;53.584;9.938;2024-03-22T00:23:34;8.50;1.00
3023;DHT22;1521;53.584;9.938;2024-03-22T00:26:00;8.50;1.00
3023;DHT22;1521;53.584;9.938;2024-03-22T00:28:25;8.60;1.00
3023;DHT22;1521;53.584;9.938;2024-03-22T00:30:51;8.60;1.00
3023;DHT22;1521;53.584;9.938;2024-03-22T00:33:16;8.50;1.00
3023;DHT22;1521;53.584;9.938;2024-03-22T00:35:42;8.50;1.00
3023;DHT22;1521;53.584;9.938;2024-03-22T00:38:07;8.60;1.00
3023;DHT22;1521;53.584;9.938;2024-03-22T00:40:33;8.50;1.00
3023;DHT22;1521;53.584;9.938;2024-03-22T00:42:59;8.60;1.00
3023;DHT22;1521;53.584;9.938;2024-03-22T00:45:24;8.60;1.00
3023;DHT22;1521;53.584;9.938;2024-03-22T00:47:50;8.60;1.00
3023;DHT22;1521;53.584;9.938;2024-03-22T00:50:16;8.60;1.00
3023;DHT22;1521;53.584;9.938;2024-03-22T00:52:41;8.70;1.00
3023;DHT22;1521;53.584;9.938;2024-03-22T00:55:07;8.70;1.00
3023;DHT22;1521;53.584;9.938;2024-03-22T00:57:33;8.70;1.00
3023;DHT22;1521;53.584;9.938;2024-03-22T00:59:58;8.60;1.00
3023;DHT22;1521;53.584;9.938;2024-03-22T01:02:24;8.70;1.00
3023;DHT22;1521;53.584;9.938;2024-03-22T01:04:50;8.70;1.00
3023;DHT22;1521;53.584;9.938;2024-03-22T01:07:15;8.70;1.00
3023;DHT22;1521;53.584;9.938;2024-03-22T01:09:41;8.70;1.00
3023;DHT22;1521;53.584;9.938;2024-03-22T01:12:09;8.70;1.00
3023;DHT22;1521;53.584;9.938;2024-03-22T01:14:35;8.80;1.00
3023;DHT22;1521;53.584;9.938;2024-03-22T01:17:01;8.80;1.00
3023;DHT22;1521;53.584;9.938;2024-03-22T01:19:26;8.80;1.00
3023;DHT22;1521;53.584;9.938;2024-03-22T01:21:52;8.80;1.00
3023;DHT22;1521;53.584;9.938;2024-03-22T01:24:17;8.70;1.00
3023;DHT22;1521;53.584;9.938;2024-03-22T01:26:43;8.80;1.00
3023;DHT22;1521;53.584;9.938;2024-03-22T01:29:08;8.70;1.00
3023;DHT22;1521;53.584;9.938;2024-03-22T01:31:34;8.80;1.00
3023;DHT22;1521;53.584;9.938;2024-03-22T01:33:59;8.70;1.00
3023;DHT22;1521;53.584;9.938;2024-03-22T01:36:25;8.70;1.00
3023;DHT22;1521;53.584;9.938;2024-03-22T01:38:50;8.70;1.00
3023;DHT22;1521;53.584;9.938;2024-03-22T01:41:16;8.80;1.00
3023;DHT22;1521;53.584;9.938;2024-03-22T01:43:43;8.70;1.00
3023;DHT22;1521;53.584;9.938;2024-03-22T01:46:08;8.70;1.00
3023;DHT22;1521;53.584;9.938;2024-03-22T01:48:34;8.70;1.00
3023;DHT22;1521;53.584;9.938;2024-03-22T01:51:01;8.70;1.00
3023;DHT22;1521;53.584;9.938;2024-03-22T01:53:27;8.70;1.00
3023;DHT22;1521;53.584;9.938;2024-03-22T01:55:53;8.80;1.00
3023;DHT22;1521;53.584;9.938;2024-03-22T01:58:18;8.80;1.00
3023;DHT22;1521;53.584;9.938;2024-03-22T02:00:44;8.80;1.00
3023;DHT22;1521;53.584;9.938;2024-03-22T02:03:09;8.80;1.00
3023;DHT22;1521;53.584;9.938;2024-03-22T02:05:35;8.80;1.00
3023;DHT22;1521;53.584;9.938;2024-03-22T02:08:00;8.90;1.00
3023;DHT22;1521;53.584;9.938;2024-03-22T02:10:26;8.90;1.00
3023;DHT22;1521;53.584;9.938;2024-03-22T02:12:52;8.90;1.00
3023;DHT22;1521;53.584;9.938;2024-03-22T02:15:17;8.90;1.00
3023;DHT22;1521;53.584;9.938;2024-03-22T02:17:43;8.90;1.00
3023;DHT22;1521;53.584;9.938;2024-03-22T02:20:08;8.90;1.00
3023;DHT22;1521;53.584;9.938;2024-03-22T02:22:35;8.90;1.00
3023;DHT22;1521;53.584;9.938;2024-03-22T02:25:01;8.90;1.00
3023;DHT22;1521;53.584;9.938;2024-03-22T02:27:26;8.90;1.00
3023;DHT22;1521;53.584;9.938;2024-03-22T02:29:52;9.00;1.00
3023;DHT22;1521;53.584;9.938;2024-03-22T02:32:17;9.00;1.00
3023;DHT22;1521;53.584;9.938;2024-03-22T02:34:43;9.00;1.00
3023;DHT22;1521;53.584;9.938;2024-03-22T02:37:08;9.00;1.00
3023;DHT22;1521;53.584;9.938;2024-03-22T02:39:34;9.00;1.00
3023;DHT22;1521;53.584;9.938;2024-03-22T02:42:00;9.00;1.00
3023;DHT22;1521;53.584;9.938;2024-03-22T02:44:25;9.00;1.00
3023;DHT22;1521;53.584;9.938;2024-03-22T02:46:51;9.00;1.00
3023;DHT22;1521;53.584;9.938;2024-03-22T02:49:16;9.00;1.00
3023;DHT22;1521;53.584;9.938;2024-03-22T02:51:41;9.10;1.00
3023;DHT22;1521;53.584;9.938;2024-03-22T02:54:07;9.10;1.00
3023;DHT22;1521;53.584;9.938;2024-03-22T02:56:32;9.10;1.00
3023;DHT22;1521;53.584;9.938;2024-03-22T02:58:58;9.10;1.00
3023;DHT22;1521;53.584;9.938;2024-03-22T03:01:23;9.10;1.00
3023;DHT22;1521;53.584;9.938;2024-03-22T03:03:49;9.10;1.00
3023;DHT22;1521;53.584;9.938;2024-03-22T03:06:14;9.10;1.00
3023;DHT22;1521;53.584;9.938;2024-03-22T03:08:41;9.10;1.00
3023;DHT22;1521;53.584;9.938;2024-03-22T03:11:07;9.10;1.00
3023;DHT22;1521;53.584;9.938;2024-03-22T03:13:32;9.20;1.00
3023;DHT22;1521;53.584;9.938;2024-03-22T03:15:58;9.20;1.00
3023;DHT22;1521;53.584;9.938;2024-03-22T03:18:24;9.20;1.00
3023;DHT22;1521;53.584;9.938;2024-03-22T03:20:49;9.30;1.00
3023;DHT22;1521;53.584;9.938;2024-03-22T03:23:15;9.30;1.00
3023;DHT22;1521;53.584;9.938;2024-03-22T03:25:40;9.30;1.00
3023;DHT22;1521;53.584;9.938;2024-03-22T03:28:06;9.30;1.00
3023;DHT22;1521;53.584;9.938;2024-03-22T03:30:36;9.30;1.00
3023;DHT22;1521;53.584;9.938;2024-03-22T03:33:01;9.30;1.00
3023;DHT22;1521;53.584;9.938;2024-03-22T03:35:27;9.20;1.00
3023;DHT22;1521;53.584;9.938;2024-03-22T03:37:54;9.20;1.00
3023;DHT22;1521;53.584;9.938;2024-03-22T03:40:20;9.30;1.00
3023;DHT22;1521;53.584;9.938;2024-03-22T03:42:47;9.30;1.00
3023;DHT22;1521;53.584;9.938;2024-03-22T03:45:12;9.30;1.00
3023;DHT22;1521;53.584;9.938;2024-03-22T03:47:38;9.30;1.00
3023;DHT22;1521;53.584;9.938;2024-03-22T03:50:04;9.30;1.00
3023;DHT22;1521;53.584;9.938;2024-03-22T03:52:29;9.40;1.00
3023;DHT22;1521;53.584;9.938;2024-03-22T03:54:55;9.30;1.00
3023;DHT22;1521;53.584;9.938;2024-03-22T03:57:20;9.30;1.00
3023;DHT22;1521;53.584;9.938;2024-03-22T03:59:46;9.30;1.00
3023;DHT22;1521;53.584;9.938;2024-03-22T04:02:11;9.30;1.00
3023;DHT22;1521;53.584;9.938;2024-03-22T04:04:37;9.40;1.00
3023;DHT22;1521;53.584;9.938;2024-03-22T04:07:02;9.40;1.00
3023;DHT22;1521;53.584;9.938;2024-03-22T04:09:28;9.40;1.00
3023;DHT22;1521;53.584;9.938;2024-03-22T04:11:54;12.70;1.00
3023;DHT22;1521;53.584;9.938;2024-03-22T04:14:19;9.40;1.00
3023;DHT22;1521;53.584;9.938;2024-03-22T04:16:45;9.40;1.00
3023;DHT22;1521;53.584;9.938;2024-03-22T04:19:10;9.40;1.00
3023;DHT22;1521;53.584;9.938;2024-03-22T04:21:36;9.40;1.00
3023;DHT22;1521;53.584;9.938;2024-03-22T04:24:01;9.40;1.00
3023;DHT22;1521;53.584;9.938;2024-03-22T04:26:27;9.50;1.00
3023;DHT22;1521;53.584;9.938;2024-03-22T04:28:52;9.40;1.00
3023;DHT22;1521;53.584;9.938;2024-03-22T04:31:18;9.50;1.00
3023;DHT22;1521;53.584;9.938;2024-03-22T04:33:43;9.50;1.00
3023;DHT22;1521;53.584;9.938;2024-03-22T04:36:09;9.50;1.00
3023;DHT22;1521;53.584;9.938;2024-03-22T04:38:35;9.50;1.00
3023;DHT22;1521;53.584;9.938;2024-03-22T04:41:00;9.50;1.00
3023;DHT22;1521;53.584;9.938;2024-03-22T04:43:27;9.60;1.00
3023;DHT22;1521;53.584;9.938;2024-03-22T04:45:53;9.50;1.00
3023;DHT22;1521;53.584;9.938;2024-03-22T04:48:20;9.60;1.00
3023;DHT22;1521;53.584;9.938;2024-03-22T04:50:52;9.50;1.00
3023;DHT22;1521;53.584;9.938;2024-03-22T04:53:20;9.50;1.00
3023;DHT22;1521;53.584;9.938;2024-03-22T04:55:46;9.60;1.00
3023;DHT22;1521;53.584;9.938;2024-03-22T04:58:20;9.50;1.00
3023;DHT22;1521;53.584;9.938;2024-03-22T05:00:47;9.60;1.00
3023;DHT22;1521;53.584;9.938;2024-03-22T05:03:13;9.60;1.00
3023;DHT22;1521;53.584;9.938;2024-03-22T05:05:39;9.70;1.00
3023;DHT22;1521;53.584;9.938;2024-03-22T05:08:05;9.60;1.00
3023;DHT22;1521;53.584;9.938;2024-03-22T05:10:31;9.60;1.00
3023;DHT22;1521;53.584;9.938;2024-03-22T05:12:57;9.60;1.00
3023;DHT22;1521;53.584;9.938;2024-03-22T05:15:23;9.60;1.00
3023;DHT22;1521;53.584;9.938;2024-03-22T05:17:50;9.60;1.00
3023;DHT22;1521;53.584;9.938;2024-03-22T05:20:16;9.60;1.00
3023;DHT22;1521;53.584;9.938;2024-03-22T05:22:42;9.60;1.00
3023;DHT22;1521;53.584;9.938;2024-03-22T05:25:08;9.60;1.00
3023;DHT22;1521;53.584;9.938;2024-03-22T05:27:34;9.60;1.00
3023;DHT22;1521;53.584;9.938;2024-03-22T05:30:00;9.60;1.00
3023;DHT22;1521;53.584;9.938;2024-03-22T05:32:26;9.70;1.00
3023;DHT22;1521;53.584;9.938;2024-03-22T05:34:55;9.70;1.00
3023;DHT22;1521;53.584;9.938;2024-03-22T05:37:20;9.70;1.00
3023;DHT22;1521;53.584;9.938;2024-03-22T05:39:46;9.70;1.00
3023;DHT22;1521;53.584;9.938;2024-03-22T05:42:11;9.70;1.00
3023;DHT22;1521;53.584;9.938;2024-03-22T05:44:37;9.70;1.00
3023;DHT22;1521;53.584;9.938;2024-03-22T05:47:02;9.80;1.00
3023;DHT22;1521;53.584;9.938;2024-03-22T05:49:28;9.70;1.00
3023;DHT22;1521;53.584;9.938;2024-03-22T05:51:54;9.80;1.00
3023;DHT22;1521;53.584;9.938;2024-03-22T05:54:20;9.70;1.00
3023;DHT22;1521;53.584;9.938;2024-03-22T05:56:46;9.80;1.00
3023;DHT22;1521;53.584;9.938;2024-03-22T05:59:11;9.70;12.40
3023;DHT22;1521;53.584;9.938;2024-03-22T06:01:37;9.80;17.10
3023;DHT22;1521;53.584;9.938;2024-03-22T06:04:06;9.80;99.90
3023;DHT22;1521;53.584;9.938;2024-03-22T06:06:35;9.80;99.90
3023;DHT22;1521;53.584;9.938;2024-03-22T06:09:01;9.90;99.90
3023;DHT22;1521;53.584;9.938;2024-03-22T06:11:30;9.90;99.90
3023;DHT22;1521;53.584;9.938;2024-03-22T06:13:55;9.90;85.30
3023;DHT22;1521;53.584;9.938;2024-03-22T06:16:21;9.90;98.90
3023;DHT22;1521;53.584;9.938;2024-03-22T06:18:47;10.00;73.90
3023;DHT22;1521;53.584;9.938;2024-03-22T06:21:13;10.90;40.00
3023;DHT22;1521;53.584;9.938;2024-03-22T06:23:40;10.00;81.80
3023;DHT22;1521;53.584;9.938;2024-03-22T06:26:05;10.00;58.00
3023;DHT22;1521;53.584;9.938;2024-03-22T06:28:31;10.10;71.90
3023;DHT22;1521;53.584;9.938;2024-03-22T06:30:56;10.10;99.90
3023;DHT22;1521;53.584;9.938;2024-03-22T06:33:22;10.10;99.90
3023;DHT22;1521;53.584;9.938;2024-03-22T06:35:47;10.20;99.90
3023;DHT22;1521;53.584;9.938;2024-03-22T06:38:13;10.20;54.60
3023;DHT22;1521;53.584;9.938;2024-03-22T06:40:38;10.20;22.00
3023;DHT22;1521;53.584;9.938;2024-03-22T06:43:04;10.30;1.00
3023;DHT22;1521;53.584;9.938;2024-03-22T06:45:30;10.30;1.00
3023;DHT22;1521;53.584;9.938;2024-03-22T06:47:55;10.30;1.00
3023;DHT22;1521;53.584;9.938;2024-03-22T06:50:21;10.30;1.00
3023;DHT22;1521;53.584;9.938;2024-03-22T06:52:50;10.30;1.00
3023;DHT22;1521;53.584;9.938;2024-03-22T06:55:17;10.30;1.00
3023;DHT22;1521;53.584;9.938;2024-03-22T06:57:44;10.30;1.00
3023;DHT22;1521;53.584;9.938;2024-03-22T07:00:10;10.30;1.00
3023;DHT22;1521;53.584;9.938;2024-03-22T07:02:36;10.30;1.00
3023;DHT22;1521;53.584;9.938;2024-03-22T07:05:02;10.40;1.00
3023;DHT22;1521;53.584;9.938;2024-03-22T07:07:29;10.30;1.00
3023;DHT22;1521;53.584;9.938;2024-03-22T07:09:54;10.40;67.20
3023;DHT22;1521;53.584;9.938;2024-03-22T07:12:21;10.40;99.90
3023;DHT22;1521;53.584;9.938;2024-03-22T07:14:47;10.40;60.90
3023;DHT22;1521;53.584;9.938;2024-03-22T07:17:13;10.50;3.10
3023;DHT22;1521;53.584;9.938;2024-03-22T07:19:38;10.50;1.00
3023;DHT22;1521;53.584;9.938;2024-03-22T07:22:04;10.50;1.00
3023;DHT22;1521;53.584;9.938;2024-03-22T07:24:29;10.60;1.00
3023;DHT22;1521;53.584;9.938;2024-03-22T07:26:55;10.60;1.00
3023;DHT22;1521;53.584;9.938;2024-03-22T07:29:21;10.70;1.00
3023;DHT22;1521;53.584;9.938;2024-03-22T07:31:46;10.70;1.00
3023;DHT22;1521;53.584;9.938;2024-03-22T07:34:12;10.70;1.00
3023;DHT22;1521;53.584;9.938;2024-03-22T07:36:38;10.70;1.00
3023;DHT22;1521;53.584;9.938;2024-03-22T07:39:04;10.70;1.00
3023;DHT22;1521;53.584;9.938;2024-03-22T07:41:32;10.80;1.00
3023;DHT22;1521;53.584;9.938;2024-03-22T07:43:58;10.80;1.00
3023;DHT22;1521;53.584;9.938;2024-03-22T07:46:24;10.80;1.00
3023;DHT22;1521;53.584;9.938;2024-03-22T07:48:50;10.80;1.00
3023;DHT22;1521;53.584;9.938;2024-03-22T07:51:15;10.80;1.00
3023;DHT22;1521;53.584;9.938;2024-03-22T07:53:41;10.80;1.00
3023;DHT22;1521;53.584;9.938;2024-03-22T07:56:06;10.80;1.00
3023;DHT22;1521;53.584;9.938;2024-03-22T07:58:32;10.80;1.00
3023;DHT22;1521;53.584;9.938;2024-03-22T08:00:57;10.80;64.40
3023;DHT22;1521;53.584;9.938;2024-03-22T08:03:23;10.80;99.90
3023;DHT22;1521;53.584;9.938;2024-03-22T08:05:49;10.70;99.90
3023;DHT22;1521;53.584;9.938;2024-03-22T08:08:14;10.70;99.90
3023;DHT22;1521;53.584;9.938;2024-03-22T08:10:40;10.70;99.90
3023;DHT22;1521;53.584;9.938;2024-03-22T08:13:05;10.70;1.00
3023;DHT22;1521;53.584;9.938;2024-03-22T08:15:31;10.70;1.00
3023;DHT22;1521;53.584;9.938;2024-03-22T08:17:56;10.80;1.00
3023;DHT22;1521;53.584;9.938;2024-03-22T08:20:23;10.80;1.00
3023;DHT22;1521;53.584;9.938;2024-03-22T08:22:49;10.80;1.00
3023;DHT22;1521;53.584;9.938;2024-03-22T08:25:14;10.80;99.90
3023;DHT22;1521;53.584;9.938;2024-03-22T08:27:43;10.90;99.90
3023;DHT22;1521;53.584;9.938;2024-03-22T08:30:09;10.90;99.90
3023;DHT22;1521;53.584;9.938;2024-03-22T08:32:35;11.00;99.90
3023;DHT22;1521;53.584;9.938;2024-03-22T08:35:01;11.00;99.90
3023;DHT22;1521;53.584;9.938;2024-03-22T08:37:26;10.90;92.50
3023;DHT22;1521;53.584;9.938;2024-03-22T08:39:52;10.90;99.90
3023;DHT22;1521;53.584;9.938;2024-03-22T08:42:18;10.90;1.00
3023;DHT22;1521;53.584;9.938;2024-03-22T08:44:44;10.90;1.00
3023;DHT22;1521;53.584;9.938;2024-03-22T08:47:09;10.90;50.90
3023;DHT22;1521;53.584;9.938;2024-03-22T08:49:35;10.80;99.90
3023;DHT22;1521;53.584;9.938;2024-03-22T08:52:01;10.80;1.00
3023;DHT22;1521;53.584;9.938;2024-03-22T08:54:27;10.80;1.00
3023;DHT22;1521;53.584;9.938;2024-03-22T08:56:53;10.80;99.90
3023;DHT22;1521;53.584;9.938;2024-03-22T08:59:18;10.80;1.00
3023;DHT22;1521;53.584;9.938;2024-03-22T09:01:44;10.80;99.90
3023;DHT22;1521;53.584;9.938;2024-03-22T09:04:09;10.80;99.90
3023;DHT22;1521;53.584;9.938;2024-03-22T09:06:35;10.80;1.00
3023;DHT22;1521;53.584;9.938;2024-03-22T09:09:00;10.80;47.10
3023;DHT22;1521;53.584;9.938;2024-03-22T09:11:26;10.80;99.90
3023;DHT22;1521;53.584;9.938;2024-03-22T09:13:52;10.70;1.00
3023;DHT22;1521;53.584;9.938;2024-03-22T09:16:20;10.70;1.00
3023;DHT22;1521;53.584;9.938;2024-03-22T09:18:45;10.70;99.90
3023;DHT22;1521;53.584;9.938;2024-03-22T09:21:11;10.70;1.00
3023;DHT22;1521;53.584;9.938;2024-03-22T09:23:37;10.70;1.00
3023;DHT22;1521;53.584;9.938;2024-03-22T09:26:02;10.70;99.90
3023;DHT22;1521;53.584;9.938;2024-03-22T09:28:28;10.70;95.70
3023;DHT22;1521;53.584;9.938;2024-03-22T09:30:54;10.80;1.00
3023;DHT22;1521;53.584;9.938;2024-03-22T09:33:19;10.80;99.90
3023;DHT22;1521;53.584;9.938;2024-03-22T09:35:45;10.80;99.90
3023;DHT22;1521;53.584;9.938;2024-03-22T09:38:10;10.80;1.00
3023;DHT22;1521;53.584;9.938;2024-03-22T09:40:39;10.70;99.90
3023;DHT22;1521;53.584;9.938;2024-03-22T09:43:07;10.70;99.90
3023;DHT22;1521;53.584;9.938;2024-03-22T09:45:33;10.70;99.90
3023;DHT22;1521;53.584;9.938;2024-03-22T09:47:59;10.70;1.00
3023;DHT22;1521;53.584;9.938;2024-03-22T09:50:25;10.80;99.90
3023;DHT22;1521;53.584;9.938;2024-03-22T09:52:56;10.80;99.90
3023;DHT22;1521;53.584;9.938;2024-03-22T09:55:23;10.70;99.90
3023;DHT22;1521;53.584;9.938;2024-03-22T09:57:49;10.70;1.00
3023;DHT22;1521;53.584;9.938;2024-03-22T10:00:19;10.70;99.90
3023;DHT22;1521;53.584;9.938;2024-03-22T10:02:50;10.70;99.90
3023;DHT22;1521;53.584;9.938;2024-03-22T10:05:16;10.70;99.90
3023;DHT22;1521;53.584;9.938;2024-03-22T10:07:43;10.70;99.90
3023;DHT22;1521;53.584;9.938;2024-03-22T10:10:09;10.70;1.00
3023;DHT22;1521;53.584;9.938;2024-03-22T10:12:35;10.70;1.00
3023;DHT22;1521;53.584;9.938;2024-03-22T10:15:01;10.60;49.90
3023;DHT22;1521;53.584;9.938;2024-03-22T10:17:28;10.70;1.00
3023;DHT22;1521;53.584;9.938;2024-03-22T10:19:54;10.60;1.00
3023;DHT22;1521;53.584;9.938;2024-03-22T10:22:20;10.60;1.00
3023;DHT22;1521;53.584;9.938;2024-03-22T10:24:46;10.60;5.00
3023;DHT22;1521;53.584;9.938;2024-03-22T10:27:11;10.60;47.80
3023;DHT22;1521;53.584;9.938;2024-03-22T10:29:37;10.60;99.90
3023;DHT22;1521;53.584;9.938;2024-03-22T10:32:03;10.50;99.90
3023;DHT22;1521;53.584;9.938;2024-03-22T10:34:28;10.50;99.90
3023;DHT22;1521;53.584;9.938;2024-03-22T10:37:00;10.60;99.90
3023;DHT22;1521;53.584;9.938;2024-03-22T10:39:26;10.60;99.90
3023;DHT22;1521;53.584;9.938;2024-03-22T10:41:52;10.60;99.90
3023;DHT22;1521;53.584;9.938;2024-03-22T10:44:18;10.60;99.90
3023;DHT22;1521;53.584;9.938;2024-03-22T10:46:48;10.60;99.90
3023;DHT22;1521;53.584;9.938;2024-03-22T10:49:18;10.70;99.90
3023;DHT22;1521;53.584;9.938;2024-03-22T10:51:54;10.70;99.90
3023;DHT22;1521;53.584;9.938;2024-03-22T10:54:25;10.60;93.90
3023;DHT22;1521;53.584;9.938;2024-03-22T10:56:51;10.70;99.90
3023;DHT22;1521;53.584;9.938;2024-03-22T10:59:22;10.70;99.00
3023;DHT22;1521;53.584;9.938;2024-03-22T11:01:48;10.70;95.90
3023;DHT22;1521;53.584;9.938;2024-03-22T11:04:19;10.70;90.00
3023;DHT22;1521;53.584;9.938;2024-03-22T11:06:48;10.70;82.90
3023;DHT22;1521;53.584;9.938;2024-03-22T11:09:26;10.70;75.60
3023;DHT22;1521;53.584;9.938;2024-03-22T11:11:53;10.70;78.40
3023;DHT22;1521;53.584;9.938;2024-03-22T11:14:19;10.70;53.50
3023;DHT22;1521;53.584;9.938;2024-03-22T11:16:49;10.70;39.60
3023;DHT22;1521;53.584;9.938;2024-03-22T11:19:15;10.60;44.90
3023;DHT22;1521;53.584;9.938;2024-03-22T11:21:41;10.60;62.30
3023;DHT22;1521;53.584;9.938;2024-03-22T11:24:06;10.60;78.50
3023;DHT22;1521;53.584;9.938;2024-03-22T11:26:34;10.60;85.20
3023;DHT22;1521;53.584;9.938;2024-03-22T11:29:00;10.60;75.80
3023;DHT22;1521;53.584;9.938;2024-03-22T11:31:27;10.50;53.40
3023;DHT22;1521;53.584;9.938;2024-03-22T11:33:56;10.50;77.80
3023;DHT22;1521;53.584;9.938;2024-03-22T11:36:22;10.50;88.90
3023;DHT22;1521;53.584;9.938;2024-03-22T11:38:48;10.50;79.70
3023;DHT22;1521;53.584;9.938;2024-03-22T11:41:18;10.60;86.10
3023;DHT22;1521;53.584;9.938;2024-03-22T11:43:45;10.70;59.50
3023;DHT22;1521;53.584;9.938;2024-03-22T11:46:13;10.80;56.50
3023;DHT22;1521;53.584;9.938;2024-03-22T11:48:40;10.80;25.70
3023;DHT22;1521;53.584;9.938;2024-03-22T11:51:07;10.90;1.00
3023;DHT22;1521;53.584;9.938;2024-03-22T11:53:34;11.10;1.00
3023;DHT22;1521;53.584;9.938;2024-03-22T11:56:00;10.90;1.00
3023;DHT22;1521;53.584;9.938;2024-03-22T11:58:27;11.00;1.00
3023;DHT22;1521;53.584;9.938;2024-03-22T12:00:52;11.00;1.00
3023;DHT22;1521;53.584;9.938;2024-03-22T12:03:18;14.20;1.00
3023;DHT22;1521;53.584;9.938;2024-03-22T12:05:44;11.00;1.00
3023;DHT22;1521;53.584;9.938;2024-03-22T12:08:10;10.90;1.00
3023;DHT22;1521;53.584;9.938;2024-03-22T12:10:36;11.00;1.00
3023;DHT22;1521;53.584;9.938;2024-03-22T12:13:01;10.90;1.00
3023;DHT22;1521;53.584;9.938;2024-03-22T12:15:27;10.90;1.00
3023;DHT22;1521;53.584;9.938;2024-03-22T12:17:53;10.90;1.00
3023;DHT22;1521;53.584;9.938;2024-03-22T12:20:18;10.80;1.00
3023;DHT22;1521;53.584;9.938;2024-03-22T12:22:44;10.80;1.00
3023;DHT22;1521;53.584;9.938;2024-03-22T12:25:09;10.80;1.00
3023;DHT22;1521;53.584;9.938;2024-03-22T12:27:37;10.80;1.00
3023;DHT22;1521;53.584;9.938;2024-03-22T12:30:02;10.70;5.40
3023;DHT22;1521;53.584;9.938;2024-03-22T12:32:28;10.70;27.50
3023;DHT22;1521;53.584;9.938;2024-03-22T12:34:54;10.70;52.70
3023;DHT22;1521;53.584;9.938;2024-03-22T12:37:20;10.60;70.30
3023;DHT22;1521;53.584;9.938;2024-03-22T12:39:45;10.70;97.10
3023;DHT22;1521;53.584;9.938;2024-03-22T12:42:11;10.70;99.90
3023;DHT22;1521;53.584;9.938;2024-03-22T12:44:36;10.70;99.90
3023;DHT22;1521;53.584;9.938;2024-03-22T12:47:02;10.70;99.90
3023;DHT22;1521;53.584;9.938;2024-03-22T12:49:28;10.80;99.90
3023;DHT22;1521;53.584;9.938;2024-03-22T12:51:55;10.80;99.90
3023;DHT22;1521;53.584;9.938;2024-03-22T12:54:22;10.90;99.90
3023;DHT22;1521;53.584;9.938;2024-03-22T12:56:47;10.90;99.90
3023;DHT22;1521;53.584;9.938;2024-03-22T12:59:13;10.90;97.50
3023;DHT22;1521;53.584;9.938;2024-03-22T13:01:39;10.90;91.70
3023;DHT22;1521;53.584;9.938;2024-03-22T13:04:04;10.90;74.10
3023;DHT22;1521;53.584;9.938;2024-03-22T13:06:30;10.80;38.70
3023;DHT22;1521;53.584;9.938;2024-03-22T13:08:55;10.80;96.00
3023;DHT22;1521;53.584;9.938;2024-03-22T13:11:21;10.70;48.70
3023;DHT22;1521;53.584;9.938;2024-03-22T13:13:47;10.70;69.80
3023;DHT22;1521;53.584;9.938;2024-03-22T13:16:12;10.70;99.90
3023;DHT22;1521;53.584;9.938;2024-03-22T13:18:41;10.70;98.90
3023;DHT22;1521;53.584;9.938;2024-03-22T13:21:06;10.70;70.00
3023;DHT22;1521;53.584;9.938;2024-03-22T13:23:32;10.70;95.70
3023;DHT22;1521;53.584;9.938;2024-03-22T13:26:05;10.70;99.90
3023;DHT22;1521;53.584;9.938;2024-03-22T13:28:32;10.70;97.10
3023;DHT22;1521;53.584;9.938;2024-03-22T13:31:04;10.60;75.90
3023;DHT22;1521;53.584;9.938;2024-03-22T13:33:34;10.50;60.20
3023;DHT22;1521;53.584;9.938;2024-03-22T13:36:00;10.50;56.30
3023;DHT22;1521;53.584;9.938;2024-03-22T13:38:25;10.40;74.10
3023;DHT22;1521;53.584;9.938;2024-03-22T13:40:55;10.40;92.60
3023;DHT22;1521;53.584;9.938;2024-03-22T13:43:21;10.30;95.30
3023;DHT22;1521;53.584;9.938;2024-03-22T13:45:50;10.30;99.90
3023;DHT22;1521;53.584;9.938;2024-03-22T13:48:16;10.30;99.90
3023;DHT22;1521;53.584;9.938;2024-03-22T13:50:41;10.30;99.90
3023;DHT22;1521;53.584;9.938;2024-03-22T13:53:07;10.30;99.90
3023;DHT22;1521;53.584;9.938;2024-03-22T13:55:33;10.20;99.90
3023;DHT22;1521;53.584;9.938;2024-03-22T13:57:59;10.30;99.90
3023;DHT22;1521;53.584;9.938;2024-03-22T14:00:26;10.30;75.40
3023;DHT22;1521;53.584;9.938;2024-03-22T14:02:52;10.30;93.50
3023;DHT22;1521;53.584;9.938;2024-03-22T14:05:19;10.20;60.40
3023;DHT22;1521;53.584;9.938;2024-03-22T14:07:45;10.20;77.80
3023;DHT22;1521;53.584;9.938;2024-03-22T14:10:10;10.20;89.00
3023;DHT22;1521;53.584;9.938;2024-03-22T14:12:38;10.20;49.30
3023;DHT22;1521;53.584;9.938;2024-03-22T14:15:04;10.10;86.80
3023;DHT22;1521;53.584;9.938;2024-03-22T14:17:31;10.20;99.90
3023;DHT22;1521;53.584;9.938;2024-03-22T14:19:58;10.10;94.40
3023;DHT22;1521;53.584;9.938;2024-03-22T14:22:23;10.10;71.60
3023;DHT22;1521;53.584;9.938;2024-03-22T14:24:49;10.10;57.30
3023;DHT22;1521;53.584;9.938;2024-03-22T14:27:14;10.10;45.20
3023;DHT22;1521;53.584;9.938;2024-03-22T14:29:40;10.00;32.80
3023;DHT22;1521;53.584;9.938;2024-03-22T14:32:06;10.00;35.90
3023;DHT22;1521;53.584;9.938;2024-03-22T14:34:32;10.00;63.60
3023;DHT22;1521;53.584;9.938;2024-03-22T14:36:58;10.00;94.20
3023;DHT22;1521;53.584;9.938;2024-03-22T14:39:23;10.00;99.90
3023;DHT22;1521;53.584;9.938;2024-03-22T14:41:49;10.00;5.70
3023;DHT22;1521;53.584;9.938;2024-03-22T14:44:14;9.90;1.00
3023;DHT22;1521;53.584;9.938;2024-03-22T14:46:40;9.90;1.00
3023;DHT22;1521;53.584;9.938;2024-03-22T14:49:06;9.80;1.00
3023;DHT22;1521;53.584;9.938;2024-03-22T14:51:31;9.80;1.00
3023;DHT22;1521;53.584;9.938;2024-03-22T14:53:57;9.70;1.00
3023;DHT22;1521;53.584;9.938;2024-03-22T14:56:22;9.70;1.00
3023;DHT22;1521;53.584;9.938;2024-03-22T14:58:48;9.70;1.00
3023;DHT22;1521;53.584;9.938;2024-03-22T15:01:15;9.60;1.00
3023;DHT22;1521;53.584;9.938;2024-03-22T15:03:40;9.60;1.00
3023;DHT22;1521;53.584;9.938;2024-03-22T15:06:06;9.60;1.00
3023;DHT22;1521;53.584;9.938;2024-03-22T15:08:31;9.60;1.00
3023;DHT22;1521;53.584;9.938;2024-03-22T15:10:57;9.50;1.00
3023;DHT22;1521;53.584;9.938;2024-03-22T15:13:23;9.50;1.00
3023;DHT22;1521;53.584;9.938;2024-03-22T15:15:56;9.40;1.00
3023;DHT22;1521;53.584;9.938;2024-03-22T15:18:22;9.50;1.00
3023;DHT22;1521;53.584;9.938;2024-03-22T15:20:48;9.60;1.00
3023;DHT22;1521;53.584;9.938;2024-03-22T15:23:14;9.60;99.90
3023;DHT22;1521;53.584;9.938;2024-03-22T15:25:41;9.50;1.00
3023;DHT22;1521;53.584;9.938;2024-03-22T15:28:06;9.60;99.90
3023;DHT22;1521;53.584;9.938;2024-03-22T15:30:32;9.70;1.00
3023;DHT22;1521;53.584;9.938;2024-03-22T15:32:59;9.70;1.00
3023;DHT22;1521;53.584;9.938;2024-03-22T15:35:25;9.70;99.90
3023;DHT22;1521;53.584;9.938;2024-03-22T15:37:51;9.70;1.00
3023;DHT22;1521;53.584;9.938;2024-03-22T15:40:16;9.80;99.90
3023;DHT22;1521;53.584;9.938;2024-03-22T15:42:42;9.80;1.00
3023;DHT22;1521;53.584;9.938;2024-03-22T15:45:08;9.90;25.50
3023;DHT22;1521;53.584;9.938;2024-03-22T15:47:33;9.90;45.00
3023;DHT22;1521;53.584;9.938;2024-03-22T15:49:59;9.90;99.90
3023;DHT22;1521;53.584;9.938;2024-03-22T15:52:25;9.80;99.90
3023;DHT22;1521;53.584;9.938;2024-03-22T15:54:51;9.80;99.90
3023;DHT22;1521;53.584;9.938;2024-03-22T15:57:19;9.80;99.90
3023;DHT22;1521;53.584;9.938;2024-03-22T15:59:45;9.70;1.00
3023;DHT22;1521;53.584;9.938;2024-03-22T16:02:10;9.70;1.00
3023;DHT22;1521;53.584;9.938;2024-03-22T16:04:36;9.60;1.00
3023;DHT22;1521;53.584;9.938;2024-03-22T16:07:03;9.60;1.00
3023;DHT22;1521;53.584;9.938;2024-03-22T16:09:30;9.50;99.90
3023;DHT22;1521;53.584;9.938;2024-03-22T16:11:55;9.50;99.90